Last 24 Hours

Squaw-Red Dog 6200'

Hourly Data | America/Los_Angeles
as of 5/24/19 2:51 PM PDT
Date & Time Temp (°F) RH (%) Dew Pt (°F) Wet Bulb (°F) Wind Dir (°) Wind Spd (mph) Wind Gust (mph) Latest Rain (In) New Snow (in) SnowDepth (in) Daily Min Temp (°F) Daily Max Temp (°F) Daily Rain (In)
5/24/19 - 1400 55.1 43 33.1 44.9 NNW | 335 4.3 8.9 0.00 0.1 2 30.1 58.0 0.00
5/24/19 - 1300 53.3 48 34.0 44.4 NW | 311 4.3 8.1 0.00 0.1 - 30.1 58.0 0.00
5/24/19 - 1200 54.3 55 38.4 46.7 S | 175 2.2 9.5 0.00 0.2 1 30.1 58.0 0.00
5/24/19 - 1100 57.6 43 35.5 46.9 S | 169 2.9 9.7 0.00 0.4 2 30.1 57.6 0.00
5/24/19 - 1000 55.4 52 38.1 47.0 S | 187 2.2 6.8 0.00 0.4 0 30.1 55.7 0.00
5/24/19 - 0900 48.0 74 40.3 44.6 WSW | 254 1.4 3.4 0.00 0.4 0 30.1 48.8 0.00
5/24/19 - 0800 40.0 86 36.0 38.4 NW | 306 1.2 2.7 0.00 0.2 1 30.1 40.0 0.00
5/24/19 - 0700 34.2 98 33.8 34.0 NNW | 336 0.4 2.2 0.00 0.4 2 30.1 34.6 0.00
5/24/19 - 0600 30.6 100 30.6 30.5 WNW | 296 0.5 1.6 0.00 0.4 2 30.1 34.6 0.00
5/24/19 - 0500 30.4 100 30.4 30.3 NW | 304 1.0 2.5 0.00 0.4 2 30.1 34.6 0.00
5/24/19 - 0400 30.8 100 30.8 30.7 WNW | 301 1.1 2.3 0.00 0.4 2 30.6 34.6 0.00
5/24/19 - 0300 31.5 100 31.5 31.4 SW | 214 1.2 3.6 0.00 0.4 1 31.3 34.6 0.00
5/24/19 - 0200 32.1 100 32.1 32.0 WNW | 303 0.6 3.2 0.00 0.4 1 32.1 34.6 0.00
5/24/19 - 0100 33.0 100 33.0 33.0 WNW | 297 0.7 2.9 0.00 0.4 2 33.0 34.6 0.00
5/24/19 - 0000 34.6 100 34.6 34.6 WNW | 301 1.0 3.2 0.00 0.4 2 34.4 54.4 0.00
5/23/19 - 2300 35.8 98 35.4 35.7 WNW | 284 1.6 3.9 0.00 0.4 2 35.8 54.4 0.00
5/23/19 - 2200 37.1 98 36.5 36.9 WSW | 256 0.7 2.3 0.00 0.4 2 37.1 54.4 0.00
5/23/19 - 2100 39.2 92 37.2 38.4 W | 270 1.2 3.3 0.00 0.4 1 37.6 54.4 0.00
5/23/19 - 2000 41.1 89 38.2 40.0 WSW | 247 1.9 8.0 0.00 0.4 1 37.6 54.4 0.00
5/23/19 - 1900 45.3 78 38.9 42.6 SSW | 194 5.1 11.7 0.00 0.4 3 37.6 54.4 0.00
5/23/19 - 1800 47.2 68 37.4 42.9 SSW | 206 4.1 11.9 0.00 0.4 3 37.6 54.4 0.00
5/23/19 - 1700 46.4 75 39.0 43.2 S | 189 7.5 15.6 0.00 0.4 2 37.6 54.4 0.00
5/23/19 - 1600 46.9 75 39.4 43.6 S | 170 5.9 12.8 0.00 0.4 1 37.6 54.4 0.00
5/23/19 - 1500 51.2 66 40.4 46.2 S | 185 4.3 10.5 0.00 0.3 - 37.6 54.4 0.00
5/23/19 - 1400 47.7 71 38.8 43.8 S | 175 4.7 21.8 0.00 0.3 0 37.6 51.9 0.00
Max 57.6 100 40.4 47.0 - 7.5 21.8 0.00 0.4 3 37.6 58.0 0.00
Avg 42.4 80 35.7 39.3 - 2.5 6.9 0.00 0.3 2 - - -
Min 30.4 43 30.4 30.3 - 0.4 1.6 0.00 0.1 0 30.1 34.6 0.00
Total - - - - - - - 0.00 - - - - -